메인 페이지
METAR-TAF:

METAR-TAF

공항 :

기타큐슈, 일본

기타큐슈 공항

위도: 33-50N, 경도: 130-57E, 고도: 3m

현재 날씨관측

예보는 31분 전, 11:00시(UTC)에 발표되었습니다.
북북서3kt
온도 8°C
습도 53%
기압 1019 hPa
시정 10km 이상
고도 4000ft 상공 구름 조금
고도 16000ft 상공 구름 많음

METAR: RJFR 201100Z 33003KT 9999 FEW040 BKN160 08/M01 Q1019

시각: 20:31 (11:31 UTC)

예보

예보는 6 시간 22분 전, 05:09시(UTC)에 발표되었습니다.
예보 대상 시간: 20일 06시부터 21일 12시까지 (UTC)
서북서8kt
시정 10km 이상
고도 3000ft 상공 구름 조금

TAF: RJFR 200509Z 2006/2112 30008KT 9999 FEW030

4,000개 이상의 공항 관측 자료 및 예보 (METAR 및 TAF 보고).

지도상에서 검색 가능한 기상관측소가 노란 점과 빨간 점으로 표시되어 있습니다.

기상관측소 명을 보려면 표시 위로 마우스를 이동하세요.

날씨 관측과 예보를 보려면 클릭하세요.

지도 변경 : 확대하려면 엑스 표시가 있는 녹색 버튼, 축소하려면 빼기 표시가 있는 녹색 버튼, 다음 페이지의 지도를 보려면 녹색 화살표를 클릭하세요.


METAR-TAF: